Time;durP1;ratioP1;P1;durP2;ratioP2;P2;SDS_P1;SDS_P2;PMS_P1;PMS_P2;Temp;Humidity;BMP_temperature;BMP_pressure;BME280_temperature;BME280_humidity;BME280_pressure;Samples;Min_cycle;Max_cycle;Signal;HPM_P1;HPM_P2
2022/03/13 00:01:33;;;;;;;13.32;8.40;;;;;;;5.33;40.32;100520.94;4969463;28;20034;-70
2022/03/13 00:04:00;;;;;;;11.77;7.32;;;;;;;5.32;40.05;100519.28;4970242;28;20097;-69
2022/03/13 00:06:35;;;;;;;10.60;6.45;;;;;;;5.31;40.06;100517.63;4968039;28;20059;-69
2022/03/13 00:09:04;;;;;;;11.63;7.82;;;;;;;5.33;40.21;100525.34;4964614;28;21142;-70
2022/03/13 00:11:30;;;;;;;12.20;7.70;;;;;;;5.35;40.11;100530.50;4967846;28;20451;-70
2022/03/13 00:13:55;;;;;;;12.43;8.02;;;;;;;5.36;39.90;100525.13;4970340;28;20066;-69
2022/03/13 00:16:22;;;;;;;13.27;8.15;;;;;;;5.47;39.44;100516.44;4966858;28;20050;-70
2022/03/13 00:18:47;;;;;;;12.90;8.18;;;;;;;5.66;38.88;100521.91;4969077;28;20031;-70
2022/03/13 00:21:15;;;;;;;13.45;8.68;;;;;;;5.85;38.82;100520.47;4969333;28;20049;-70
2022/03/13 00:23:42;;;;;;;15.70;8.60;;;;;;;6.03;38.36;100519.03;4974645;28;20036;-70
2022/03/13 00:26:07;;;;;;;10.02;7.15;;;;;;;6.10;38.01;100514.09;4969144;28;20045;-71
2022/03/13 00:28:32;;;;;;;12.52;7.68;;;;;;;6.16;37.75;100521.50;4971882;28;20046;-71
2022/03/13 00:30:58;;;;;;;13.27;7.82;;;;;;;6.23;37.33;100522.69;4970123;28;20043;-71
2022/03/13 00:33:25;;;;;;;13.32;8.20;;;;;;;6.30;36.76;100521.22;4966754;28;20339;-71
2022/03/13 00:35:50;;;;;;;11.57;7.53;;;;;;;6.47;36.68;100521.66;4969233;28;20038;-70
2022/03/13 00:38:16;;;;;;;12.48;7.47;;;;;;;6.58;36.27;100519.81;4975783;28;20097;-71
2022/03/13 00:40:44;;;;;;;10.80;6.93;;;;;;;6.62;35.98;100524.81;4972077;28;20117;-71
2022/03/13 00:43:09;;;;;;;10.38;6.80;;;;;;;6.54;36.65;100521.00;4974072;28;20030;-71
2022/03/13 00:45:35;;;;;;;11.70;7.10;;;;;;;6.33;37.83;100514.88;4968718;28;20042;-70
2022/03/13 00:48:00;;;;;;;8.63;5.80;;;;;;;6.19;37.54;100520.41;4971908;28;20478;-71
2022/03/13 00:50:26;;;;;;;9.95;6.43;;;;;;;6.07;37.63;100520.44;4970008;28;20035;-70
2022/03/13 00:52:51;;;;;;;10.68;6.50;;;;;;;6.01;37.78;100510.44;4971165;28;20031;-70
2022/03/13 00:55:17;;;;;;;11.43;6.68;;;;;;;5.98;37.90;100513.31;4971651;28;20042;-70
2022/03/13 00:57:43;;;;;;;9.32;5.68;;;;;;;5.95;37.86;100505.69;4970186;28;20170;-70
2022/03/13 01:00:10;;;;;;;10.73;6.15;;;;;;;5.88;37.89;100510.53;4970216;28;20051;-70
2022/03/13 01:02:36;;;;;;;11.50;6.72;;;;;;;5.78;38.35;100503.53;4973103;28;20027;-70
2022/03/13 01:05:03;;;;;;;13.15;7.95;;;;;;;5.73;38.49;100502.09;4973848;28;20042;-70
2022/03/13 01:07:28;;;;;;;9.98;6.78;;;;;;;5.72;38.64;100499.59;4975367;28;20050;-70
2022/03/13 01:09:53;;;;;;;13.93;8.85;;;;;;;5.64;38.82;100500.19;4973835;28;20431;-70
2022/03/13 01:12:19;;;;;;;13.88;9.10;;;;;;;5.64;38.87;100492.34;4973226;28;20228;-71
2022/03/13 01:14:44;;;;;;;15.90;9.32;;;;;;;5.59;39.26;100491.03;4972498;28;20094;-70
2022/03/13 01:17:10;;;;;;;13.13;8.43;;;;;;;5.60;39.02;100493.56;4974109;28;20046;-71
2022/03/13 01:19:40;;;;;;;14.98;8.88;;;;;;;5.54;39.29;100500.09;4971931;28;20223;-70
2022/03/13 01:22:06;;;;;;;15.95;10.07;;;;;;;5.62;38.85;100493.41;4976321;28;20054;-71
2022/03/13 01:24:46;;;;;;;12.93;8.82;;;;;;;5.63;38.71;100487.22;4973451;28;20070;-71
2022/03/13 01:27:16;;;;;;;13.93;8.70;;;;;;;5.63;38.54;100485.44;5004534;28;20042;-71
2022/03/13 01:29:43;;;;;;;10.77;6.95;;;;;;;5.66;38.18;100487.81;5001839;28;20027;-70
2022/03/13 01:32:12;;;;;;;12.48;8.15;;;;;;;5.62;38.20;100493.41;4974847;28;20495;-70
2022/03/13 01:34:54;;;;;;;11.65;7.05;;;;;;;5.74;37.04;100492.44;4955199;28;20407;-70
2022/03/13 01:37:33;;;;;;;9.52;6.45;;;;;;;5.87;37.10;100489.69;4971084;28;20039;-70
2022/03/13 01:40:10;;;;;;;10.90;6.53;;;;;;;5.83;37.04;100496.97;4970952;28;20039;-70
2022/03/13 01:42:40;;;;;;;9.00;5.47;;;;;;;5.81;37.06;100498.88;4970923;28;20035;-71
2022/03/13 01:45:10;;;;;;;8.82;5.40;;;;;;;5.85;36.62;100497.66;4973410;28;20491;-71
2022/03/13 01:47:37;;;;;;;10.75;6.43;;;;;;;5.87;36.38;100494.94;4974284;28;20034;-70
2022/03/13 01:50:06;;;;;;;11.25;7.03;;;;;;;5.91;36.63;100484.06;4972332;28;20035;-71
2022/03/13 01:52:33;;;;;;;10.10;6.57;;;;;;;5.92;36.50;100483.09;4971463;28;20399;-71
2022/03/13 01:54:59;;;;;;;9.70;6.03;;;;;;;5.91;36.56;100484.06;5003283;28;20097;-71
2022/03/13 01:57:26;;;;;;;9.75;6.32;;;;;;;5.92;36.36;100483.09;4972277;28;20041;-71
2022/03/13 01:59:57;;;;;;;9.20;6.00;;;;;;;5.90;36.51;100481.56;4973857;28;20039;-71
2022/03/13 02:02:24;;;;;;;;;;;;;;;5.84;36.63;100484.66;4973614;28;20411;-71
2022/03/13 02:04:53;;;;;;;10.45;5.97;;;;;;;5.79;36.61;100486.81;4972427;28;19918;-70
2022/03/13 02:07:24;;;;;;;9.73;6.07;;;;;;;5.78;36.61;100483.38;4970452;28;20047;-71
2022/03/13 02:09:53;;;;;;;10.02;6.70;;;;;;;5.73;36.58;100494.22;4973930;28;20031;-70
2022/03/13 02:12:20;;;;;;;12.05;6.47;;;;;;;5.75;36.45;100488.88;5001725;28;20434;-70
2022/03/13 02:14:47;;;;;;;10.55;6.45;;;;;;;5.74;36.36;100482.81;4971058;28;20050;-70
2022/03/13 02:17:25;;;;;;;9.65;5.68;;;;;;;5.66;36.54;100490.44;5004406;28;20447;-70
2022/03/13 02:19:51;;;;;;;8.00;5.00;;;;;;;5.52;36.84;100483.63;4970048;28;20038;-70
2022/03/13 02:22:18;;;;;;;7.95;4.72;;;;;;;5.41;36.89;100483.66;5004036;28;20031;-70
2022/03/13 02:24:49;;;;;;;10.68;5.97;;;;;;;5.31;37.19;100480.91;4971744;28;20035;-71
2022/03/13 02:27:21;;;;;;;13.30;5.28;;;;;;;5.24;37.41;100487.59;4999326;28;20039;-70
2022/03/13 02:29:48;;;;;;;6.93;4.82;;;;;;;5.13;37.56;100486.75;4971252;28;20082;-71
2022/03/13 02:32:14;;;;;;;8.85;5.70;;;;;;;5.04;38.03;100485.66;5000664;28;20065;-70
2022/03/13 02:34:40;;;;;;;7.75;5.10;;;;;;;4.98;38.20;100484.34;4971560;28;20059;-71
2022/03/13 02:37:23;;;;;;;6.82;4.50;;;;;;;4.87;38.26;100477.28;4969975;28;20034;-70
2022/03/13 02:39:49;;;;;;;6.82;4.25;;;;;;;4.75;38.21;100472.97;5000677;28;20041;-70
2022/03/13 02:42:15;;;;;;;6.78;4.05;;;;;;;4.65;38.40;100479.88;4975157;28;20457;-71
2022/03/13 02:44:40;;;;;;;7.35;4.10;;;;;;;4.55;38.67;100469.22;5000002;28;20035;-70
2022/03/13 02:47:07;;;;;;;9.35;5.68;;;;;;;4.51;39.50;100464.34;4969903;28;20039;-70
2022/03/13 02:49:33;;;;;;;11.77;6.05;;;;;;;4.53;39.29;100467.66;4972239;28;20392;-71
2022/03/13 02:52:03;;;;;;;13.98;7.50;;;;;;;4.59;39.25;100462.81;4986539;28;20056;-71
2022/03/13 02:54:30;;;;;;;11.00;6.72;;;;;;;4.64;39.01;100465.09;4969523;28;20039;-71
2022/03/13 02:56:57;;;;;;;12.60;6.65;;;;;;;4.67;39.10;100460.47;4969876;28;20030;-70
2022/03/13 02:59:23;;;;;;;11.20;6.65;;;;;;;4.71;39.00;100465.47;4970625;28;20038;-70
2022/03/13 03:01:50;;;;;;;11.65;6.63;;;;;;;4.73;38.92;100464.41;4970922;28;20054;-70
2022/03/13 03:04:17;;;;;;;10.70;6.78;;;;;;;4.74;38.98;100460.81;4972540;28;20030;-70
2022/03/13 03:06:57;;;;;;;12.75;7.05;;;;;;;4.74;38.91;100465.22;4971194;28;20035;-70
2022/03/13 03:09:23;;;;;;;10.93;6.82;;;;;;;4.73;38.81;100461.78;4969997;28;20038;-70
2022/03/13 03:11:50;;;;;;;12.07;7.32;;;;;;;4.74;38.73;100465.22;4970189;28;20043;-70
2022/03/13 03:14:16;;;;;;;10.90;6.78;;;;;;;4.71;38.68;100458.44;4970004;28;20460;-70
2022/03/13 03:16:44;;;;;;;11.98;6.57;;;;;;;4.73;38.79;100467.03;4968904;28;20080;-70
2022/03/13 03:19:11;;;;;;;9.20;5.90;;;;;;;4.69;38.82;100457.72;4970735;28;20050;-70
2022/03/13 03:21:39;;;;;;;10.05;5.82;;;;;;;4.70;38.59;100459.41;4971125;28;20449;-71
2022/03/13 03:24:16;;;;;;;9.15;5.65;;;;;;;4.73;38.55;100464.41;5000322;28;20038;-71
2022/03/13 03:26:42;;;;;;;10.05;5.82;;;;;;;4.74;38.14;100476.53;4969085;28;20061;-71
2022/03/13 03:29:08;;;;;;;9.43;5.28;;;;;;;4.74;38.17;100475.69;4969088;28;20042;-71
2022/03/13 03:31:41;;;;;;;9.38;5.53;;;;;;;4.69;38.31;100473.44;4970851;28;20043;-70
2022/03/13 03:34:13;;;;;;;10.02;5.22;;;;;;;4.64;38.59;100478.19;4971669;28;20499;-70
2022/03/13 03:36:44;;;;;;;6.40;4.15;;;;;;;4.49;38.88;100472.31;4968998;28;20062;-70
2022/03/13 03:39:11;;;;;;;8.75;5.32;;;;;;;4.30;40.06;100475.44;5001878;28;20031;-71
2022/03/13 03:41:40;;;;;;;7.45;5.43;;;;;;;4.18;40.78;100481.59;4968708;28;20093;-70
2022/03/13 03:44:06;;;;;;;9.30;5.82;;;;;;;3.97;41.66;100476.94;4987088;28;20450;-70
2022/03/13 03:46:34;;;;;;;8.02;5.20;;;;;;;3.85;41.50;100475.22;4970187;28;20039;-69
2022/03/13 03:49:01;;;;;;;11.18;6.72;;;;;;;3.69;42.32;100470.22;4969785;28;20177;-70
2022/03/13 03:51:27;;;;;;;11.90;6.97;;;;;;;3.52;43.24;100481.06;4971357;28;20027;-69
2022/03/13 03:53:53;;;;;;;10.25;6.72;;;;;;;3.36;43.20;100473.44;4969898;28;20196;-70
2022/03/13 03:56:21;;;;;;;9.27;6.00;;;;;;;3.24;43.11;100476.91;5003411;28;20129;-70
2022/03/13 03:58:46;;;;;;;10.15;5.63;;;;;;;3.13;43.14;100469.81;4970042;28;20035;-70
2022/03/13 04:01:12;;;;;;;9.50;5.75;;;;;;;3.03;43.66;100476.59;4969543;28;20057;-70
2022/03/13 04:03:38;;;;;;;8.50;5.22;;;;;;;2.91;43.85;100479.13;4972951;28;20047;-71
2022/03/13 04:06:04;;;;;;;7.88;4.97;;;;;;;2.85;43.76;100471.69;5001166;28;20031;-70
2022/03/13 04:08:30;;;;;;;7.90;4.82;;;;;;;2.77;44.10;100468.78;4969619;28;20042;-69
2022/03/13 04:10:56;;;;;;;6.95;4.38;;;;;;;2.65;44.12;100465.19;4968426;28;20056;-70
2022/03/13 04:13:22;;;;;;;6.78;4.05;;;;;;;2.57;44.24;100464.84;4971863;28;20038;-70
2022/03/13 04:15:47;;;;;;;8.02;4.90;;;;;;;2.46;44.99;100462.97;4970106;28;20455;-70
2022/03/13 04:18:14;;;;;;;8.40;5.10;;;;;;;2.37;45.22;100476.63;4969160;28;20046;-70
2022/03/13 04:20:44;;;;;;;9.77;5.70;;;;;;;2.24;45.70;100460.94;5001035;28;20492;-70
2022/03/13 04:23:10;;;;;;;7.78;5.05;;;;;;;2.15;45.41;100468.53;4998050;28;20506;-69
2022/03/13 04:25:38;;;;;;;8.98;5.00;;;;;;;2.04;45.56;100469.22;4968859;28;20046;-70
2022/03/13 04:28:08;;;;;;;9.05;5.25;;;;;;;1.99;45.53;100476.50;4997378;28;20130;-70
2022/03/13 04:30:36;;;;;;;10.30;6.33;;;;;;;1.95;46.14;100472.41;4998308;28;20038;-70
2022/03/13 04:33:02;;;;;;;9.80;5.60;;;;;;;1.91;46.15;100477.00;4980156;28;20298;-70
2022/03/13 04:35:28;;;;;;;9.60;5.88;;;;;;;1.90;46.25;100473.53;4971411;28;20463;-70
2022/03/13 04:37:53;;;;;;;9.73;6.82;;;;;;;1.88;46.76;100475.41;4972056;28;20049;-71
2022/03/13 04:40:19;;;;;;;9.68;5.88;;;;;;;1.88;47.15;100485.00;4973055;28;20039;-70
2022/03/13 04:42:45;;;;;;;14.13;6.97;;;;;;;1.86;46.90;100476.41;4976720;28;20051;-69
2022/03/13 04:45:12;;;;;;;9.68;6.10;;;;;;;1.84;46.94;100473.09;4974061;28;20035;-70
2022/03/13 04:47:37;;;;;;;9.52;5.10;;;;;;;1.80;47.02;100472.44;4976262;28;20038;-70
2022/03/13 04:50:03;;;;;;;7.60;4.68;;;;;;;1.76;47.06;100468.34;4975079;28;20034;-70
2022/03/13 04:52:28;;;;;;;8.02;5.10;;;;;;;1.70;48.39;100468.75;4979400;28;20098;-70
2022/03/13 04:54:53;;;;;;;10.38;5.80;;;;;;;1.67;47.77;100474.16;4972484;28;20097;-70
2022/03/13 04:57:20;;;;;;;11.88;7.00;;;;;;;1.74;47.92;100461.56;4973636;28;20035;-70
2022/03/13 04:59:45;;;;;;;10.02;6.20;;;;;;;1.90;47.43;100463.09;4975873;28;20042;-70
2022/03/13 05:02:11;;;;;;;8.38;5.72;;;;;;;1.99;47.31;100468.69;4974912;28;20495;-70
2022/03/13 05:04:38;;;;;;;10.45;5.10;;;;;;;1.98;47.13;100467.84;4974321;28;20031;-70
2022/03/13 05:07:03;;;;;;;8.85;5.45;;;;;;;2.09;46.31;100474.97;5003624;28;20039;-70
2022/03/13 05:09:29;;;;;;;10.18;5.80;;;;;;;2.31;45.45;100477.88;4974011;28;20053;-69
2022/03/13 05:11:54;;;;;;;11.13;5.68;;;;;;;2.47;44.98;100485.50;4975668;28;20054;-69
2022/03/13 05:14:20;;;;;;;8.63;5.63;;;;;;;2.59;44.34;100483.88;4972755;28;20031;-70
2022/03/13 05:16:45;;;;;;;10.65;6.20;;;;;;;2.76;43.71;100480.13;4975065;28;20118;-70
2022/03/13 05:19:11;;;;;;;11.55;6.32;;;;;;;2.88;43.37;100476.69;4973216;28;20039;-70
2022/03/13 05:21:36;;;;;;;10.13;6.28;;;;;;;2.96;43.09;100478.81;4972433;28;20116;-70
2022/03/13 05:24:02;;;;;;;10.13;5.97;;;;;;;3.01;42.82;100481.94;4975820;28;20104;-71
2022/03/13 05:26:28;;;;;;;9.55;5.80;;;;;;;3.03;42.77;100494.88;4972353;28;20066;-69
2022/03/13 05:28:53;;;;;;;10.95;6.18;;;;;;;3.06;42.66;100486.84;4978704;28;20046;-69
2022/03/13 05:31:18;;;;;;;12.55;6.60;;;;;;;3.13;42.24;100499.38;4973302;28;20038;-70
2022/03/13 05:33:44;;;;;;;11.35;6.22;;;;;;;3.17;42.17;100502.63;4972894;28;20097;-71
2022/03/13 05:36:09;;;;;;;11.88;7.88;;;;;;;2.97;45.67;100522.25;4972742;28;20392;-70
2022/03/13 05:38:35;;;;;;;12.55;7.40;;;;;;;2.70;45.79;100519.72;4972334;28;20118;-71
2022/03/13 05:41:02;;;;;;;10.60;6.97;;;;;;;2.44;45.70;100522.25;4972986;28;20043;-70
2022/03/13 05:43:31;;;;;;;11.52;6.20;;;;;;;2.24;46.26;100535.75;4972243;28;20030;-70
2022/03/13 05:45:56;;;;;;;10.35;6.38;;;;;;;2.08;46.40;100538.50;4994240;23;20108;-71
2022/03/13 05:48:22;;;;;;;9.82;6.07;;;;;;;1.97;46.42;100533.13;5007562;28;20061;-72
2022/03/13 05:50:47;;;;;;;9.88;5.95;;;;;;;1.88;47.74;100537.13;5009984;28;20041;-72
2022/03/13 05:53:12;;;;;;;16.75;10.13;;;;;;;1.81;49.51;100544.53;5011147;28;20464;-72
2022/03/13 05:55:38;;;;;;;12.73;8.15;;;;;;;1.69;49.77;100553.94;5014001;28;20049;-72
2022/03/13 05:58:04;;;;;;;13.93;8.55;;;;;;;1.61;49.21;100550.94;5010914;28;20453;-71
2022/03/13 06:00:32;;;;;;;11.75;6.43;;;;;;;1.56;49.69;100554.78;5003944;28;20114;-72
2022/03/13 06:02:58;;;;;;;13.05;7.60;;;;;;;1.51;50.03;100546.41;5011143;28;20030;-70
2022/03/13 06:05:24;;;;;;;9.32;5.85;;;;;;;1.49;49.76;100559.50;5007925;28;20104;-72
2022/03/13 06:07:50;;;;;;;8.35;5.38;;;;;;;1.45;49.69;100566.69;5008612;28;20042;-70
2022/03/13 06:10:16;;;;;;;8.07;4.97;;;;;;;1.41;49.47;100569.56;5013113;28;20476;-72
2022/03/13 06:12:41;;;;;;;7.55;4.70;;;;;;;1.51;49.45;100573.28;5013359;28;20030;-72
2022/03/13 06:15:09;;;;;;;6.90;3.95;;;;;;;1.72;49.54;100567.69;5010704;28;20030;-72
2022/03/13 06:17:39;;;;;;;7.50;4.25;;;;;;;1.97;49.58;100572.25;5010278;28;20026;-72
2022/03/13 06:20:07;;;;;;;6.00;3.93;;;;;;;2.18;49.65;100573.50;5009057;28;20501;-72
2022/03/13 06:22:33;;;;;;;5.03;3.75;;;;;;;2.34;49.58;100574.22;5011025;28;20034;-72
2022/03/13 06:24:59;;;;;;;6.07;3.60;;;;;;;2.49;49.47;100571.56;5010850;28;20061;-71
2022/03/13 06:27:24;;;;;;;5.05;3.38;;;;;;;2.60;49.51;100571.72;5010796;28;20049;-73
2022/03/13 06:29:50;;;;;;;7.32;4.05;;;;;;;2.74;49.54;100568.16;5006926;28;20037;-70
2022/03/13 06:32:15;;;;;;;6.07;3.95;;;;;;;2.92;49.42;100569.59;5010057;28;20038;-72
2022/03/13 06:34:41;;;;;;;6.90;4.22;;;;;;;3.20;49.67;100570.38;5009115;28;20044;-71
2022/03/13 06:37:08;;;;;;;5.50;3.40;;;;;;;3.62;49.75;100568.34;5009293;28;20048;-72
2022/03/13 06:39:33;;;;;;;6.97;4.03;;;;;;;3.99;49.63;100579.72;5007368;28;20038;-73
2022/03/13 06:41:59;;;;;;;5.93;3.75;;;;;;;4.29;49.48;100588.09;5009871;28;20093;-72
2022/03/13 06:44:24;;;;;;;4.97;3.67;;;;;;;4.64;49.64;100575.09;5006179;28;20041;-71
2022/03/13 06:46:49;;;;;;;6.53;3.95;;;;;;;5.11;49.13;100582.03;5009430;28;20033;-72
2022/03/13 06:49:15;;;;;;;7.18;4.65;;;;;;;5.58;48.70;100589.03;5005670;28;20038;-71
2022/03/13 06:51:41;;;;;;;7.85;5.63;;;;;;;6.00;48.31;100576.19;5004027;28;20033;-71
2022/03/13 06:54:09;;;;;;;6.70;4.68;;;;;;;6.43;47.92;100584.09;5002015;28;20128;-72
2022/03/13 06:56:35;;;;;;;8.55;6.20;;;;;;;6.76;46.60;100588.41;5009702;28;20520;-72
2022/03/13 06:59:03;;;;;;;9.40;6.38;;;;;;;6.97;44.55;100585.81;5009351;28;20064;-72
2022/03/13 07:01:37;;;;;;;10.77;6.28;;;;;;;7.33;42.54;100582.88;5014442;28;20144;-73
2022/03/13 07:04:03;;;;;;;10.23;5.78;;;;;;;7.68;40.25;100579.88;5004008;28;20022;-73
2022/03/13 07:06:29;;;;;;;9.90;5.63;;;;;;;7.75;37.51;100578.38;5007730;28;20038;-70
2022/03/13 07:08:55;;;;;;;9.52;5.97;;;;;;;7.69;36.93;100576.25;5009454;28;20042;-70
2022/03/13 07:11:21;;;;;;;7.75;5.63;;;;;;;7.73;36.91;100585.56;5005936;28;20663;-72
2022/03/13 07:13:48;;;;;;;9.07;6.50;;;;;;;7.60;35.54;100579.69;5009123;28;20050;-72
2022/03/13 07:16:15;;;;;;;8.70;6.15;;;;;;;7.70;35.55;100592.88;5008902;28;20037;-72
2022/03/13 07:18:42;;;;;;;8.15;5.75;;;;;;;7.82;35.35;100592.69;5009103;28;20038;-73
2022/03/13 07:21:08;;;;;;;9.10;5.80;;;;;;;7.75;35.69;100590.72;5008220;28;20129;-72
2022/03/13 07:23:34;;;;;;;7.70;5.13;;;;;;;7.58;35.32;100597.38;5004500;28;20521;-72
2022/03/13 07:25:59;;;;;;;8.65;5.47;;;;;;;7.50;35.54;100598.03;5009299;28;20038;-72
2022/03/13 07:28:26;;;;;;;8.40;5.50;;;;;;;7.38;35.31;100593.81;5011600;28;20037;-72
2022/03/13 07:30:51;;;;;;;8.70;5.10;;;;;;;7.38;35.17;100599.91;5009086;28;20057;-72
2022/03/13 07:33:17;;;;;;;8.13;5.60;;;;;;;7.34;34.85;100600.31;5008703;28;20486;-72
2022/03/13 07:35:44;;;;;;;8.52;5.65;;;;;;;7.31;34.79;100590.88;5009063;28;21248;-72
2022/03/13 07:38:09;;;;;;;8.93;5.93;;;;;;;7.34;34.62;100595.91;5008308;28;20560;-72
2022/03/13 07:40:35;;;;;;;8.55;4.85;;;;;;;7.33;34.75;100598.66;5009164;28;20062;-70
2022/03/13 07:43:00;;;;;;;8.30;5.03;;;;;;;7.44;34.82;100595.94;5006789;28;20120;-72
2022/03/13 07:45:26;;;;;;;7.15;4.75;;;;;;;7.46;34.89;100596.66;5008310;28;20038;-72
2022/03/13 07:47:54;;;;;;;8.80;5.10;;;;;;;7.56;34.47;100589.66;5009136;28;20034;-71
2022/03/13 07:50:20;;;;;;;9.95;6.43;;;;;;;7.48;33.65;100586.81;5004415;28;20058;-72
2022/03/13 07:52:46;;;;;;;10.00;5.90;;;;;;;7.42;33.47;100587.34;5009051;28;20029;-71
2022/03/13 07:55:11;;;;;;;7.93;4.90;;;;;;;7.48;33.71;100585.97;5009036;28;20053;-71
2022/03/13 07:57:37;;;;;;;9.38;6.13;;;;;;;7.50;33.78;100581.44;5005672;28;20498;-70
2022/03/13 08:00:02;;;;;;;8.02;5.15;;;;;;;7.62;33.83;100585.66;5007898;28;20030;-73
2022/03/13 08:02:28;;;;;;;8.02;6.18;;;;;;;7.58;33.29;100579.81;5009794;28;20516;-72
2022/03/13 08:04:54;;;;;;;8.15;5.32;;;;;;;7.72;33.73;100590.94;5007865;28;20041;-72
2022/03/13 08:07:19;;;;;;;8.10;5.40;;;;;;;8.10;33.80;100587.63;5008881;28;20033;-72
2022/03/13 08:09:44;;;;;;;7.38;4.95;;;;;;;8.68;33.63;100587.78;5008921;28;20038;-72
2022/03/13 08:12:10;;;;;;;9.15;5.93;;;;;;;9.26;33.02;100589.53;5009927;28;20040;-72
2022/03/13 08:14:35;;;;;;;7.85;5.45;;;;;;;9.81;32.50;100572.97;5013283;28;20060;-72
2022/03/13 08:17:01;;;;;;;8.48;5.60;;;;;;;10.41;32.25;100578.66;5012748;28;20042;-72
2022/03/13 08:19:26;;;;;;;10.07;6.30;;;;;;;10.93;31.68;100577.97;5012644;28;20096;-72
2022/03/13 08:21:52;;;;;;;7.80;5.40;;;;;;;11.50;31.36;100589.97;5012211;28;20062;-70
2022/03/13 08:24:18;;;;;;;7.85;5.47;;;;;;;12.06;30.37;100583.31;5011850;28;20038;-71
2022/03/13 08:26:44;;;;;;;6.43;4.80;;;;;;;12.69;30.57;100582.81;5009978;28;20401;-71
2022/03/13 08:29:11;;;;;;;8.20;5.28;;;;;;;13.15;29.63;100588.44;5012218;28;20042;-72
2022/03/13 08:31:37;;;;;;;7.10;5.55;;;;;;;13.72;28.52;100576.94;5012235;28;20045;-72
2022/03/13 08:34:10;;;;;;;7.43;5.15;;;;;;;13.98;27.89;100578.50;5012396;28;20038;-72
2022/03/13 08:36:43;;;;;;;7.32;4.80;;;;;;;14.54;27.96;100568.59;5012085;28;20045;-71
2022/03/13 08:39:09;;;;;;;6.93;4.78;;;;;;;15.33;27.13;100572.78;5011844;28;20130;-71
2022/03/13 08:41:35;;;;;;;8.88;4.85;;;;;;;16.10;26.38;100581.25;5014314;28;20121;-71
2022/03/13 08:44:00;;;;;;;5.95;4.40;;;;;;;16.64;26.05;100569.31;5007702;28;20557;-71
2022/03/13 08:46:26;;;;;;;7.15;5.35;;;;;;;17.05;24.56;100579.38;5008118;28;20060;-71
2022/03/13 08:48:51;;;;;;;7.63;5.25;;;;;;;17.17;24.44;100572.47;5013117;28;20129;-72
2022/03/13 08:51:18;;;;;;;7.03;5.18;;;;;;;17.73;24.29;100576.13;5009284;28;20533;-72
2022/03/13 08:53:44;;;;;;;8.25;6.18;;;;;;;18.02;22.33;100573.22;5010898;28;20280;-72
2022/03/13 08:56:10;;;;;;;9.07;5.88;;;;;;;18.15;22.20;100569.75;5007960;28;20176;-72
2022/03/13 08:58:35;;;;;;;7.63;5.75;;;;;;;18.42;21.47;100559.97;5010399;28;20065;-72
2022/03/13 09:01:01;;;;;;;6.43;5.00;;;;;;;18.26;21.88;100552.31;5016650;28;20034;-72
2022/03/13 09:03:28;;;;;;;7.70;5.80;;;;;;;18.55;20.98;100545.78;5012320;28;20402;-72
2022/03/13 09:05:54;;;;;;;7.80;5.63;;;;;;;18.40;19.99;100542.44;5016971;28;20252;-72
2022/03/13 09:08:20;;;;;;;8.43;5.53;;;;;;;18.28;20.15;100541.38;5012095;28;20044;-72
2022/03/13 09:10:45;;;;;;;6.63;4.85;;;;;;;18.73;21.26;100541.66;5009502;28;20425;-72
2022/03/13 09:13:10;;;;;;;9.45;6.00;;;;;;;19.61;20.35;100541.41;5010712;28;20029;-72
2022/03/13 09:15:39;;;;;;;7.38;5.75;;;;;;;19.78;19.66;100542.59;5017320;28;21717;-72
2022/03/13 09:18:05;;;;;;;10.25;7.13;;;;;;;20.37;19.24;100540.69;5006125;28;20395;-72
2022/03/13 09:20:30;;;;;;;8.45;6.03;;;;;;;20.61;19.72;100536.41;5011906;28;20041;-72
2022/03/13 09:22:55;;;;;;;7.82;5.80;;;;;;;21.10;19.43;100544.72;5012143;28;20037;-72
2022/03/13 09:25:21;;;;;;;7.03;5.47;;;;;;;21.70;18.98;100553.03;5008248;28;20494;-72
2022/03/13 09:27:48;;;;;;;7.95;5.70;;;;;;;22.23;19.30;100547.00;5008410;28;20041;-72
2022/03/13 09:30:14;;;;;;;6.95;5.50;;;;;;;23.08;18.50;100545.94;5006795;28;20033;-72
2022/03/13 09:32:41;;;;;;;6.32;4.53;;;;;;;23.82;18.27;100537.31;5009534;28;20457;-72
2022/03/13 09:35:09;;;;;;;6.95;5.47;;;;;;;24.02;17.83;100546.88;5012873;28;20513;-72
2022/03/13 09:37:34;;;;;;;7.40;6.00;;;;;;;23.54;16.80;100551.53;5011142;28;20053;-72
2022/03/13 09:40:00;;;;;;;9.75;6.30;;;;;;;23.15;17.01;100548.53;5013606;28;20037;-72
2022/03/13 09:42:25;;;;;;;9.68;6.13;;;;;;;23.65;16.81;100544.50;5010590;28;21539;-72
2022/03/13 09:44:50;;;;;;;6.80;5.57;;;;;;;24.32;17.00;100547.47;5009578;28;20034;-72
2022/03/13 09:47:16;;;;;;;6.85;4.97;;;;;;;24.74;16.69;100552.56;5010626;28;20058;-72
2022/03/13 09:49:41;;;;;;;7.30;4.72;;;;;;;25.40;16.42;100557.34;5011788;28;20052;-72
2022/03/13 09:52:07;;;;;;;5.85;4.47;;;;;;;25.74;16.14;100557.25;5005533;28;20049;-72
2022/03/13 09:54:33;;;;;;;6.57;5.03;;;;;;;25.79;16.04;100547.31;5006169;28;20580;-71
2022/03/13 09:57:01;;;;;;;7.20;4.97;;;;;;;25.99;16.07;100545.94;5011241;28;20041;-72
2022/03/13 09:59:27;;;;;;;7.38;6.03;;;;;;;26.57;14.82;100551.72;5011406;28;20117;-72
2022/03/13 10:01:52;;;;;;;7.03;5.78;;;;;;;26.76;14.96;100544.81;5016116;28;20653;-71
2022/03/13 10:04:17;;;;;;;7.47;4.82;;;;;;;27.07;15.19;100548.56;5009870;28;20038;-71
2022/03/13 10:07:03;;;;;;;6.53;4.55;;;;;;;27.67;14.80;100551.94;5011491;28;20088;-72
2022/03/13 10:09:29;;;;;;;7.22;5.15;;;;;;;27.44;14.45;100538.78;5008404;28;20081;-72
2022/03/13 10:12:09;;;;;;;6.72;5.20;;;;;;;28.21;14.30;100537.19;5011664;28;20502;-72
2022/03/13 10:14:38;;;;;;;9.48;5.38;;;;;;;28.28;14.15;100526.84;5003971;28;20064;-72
2022/03/13 10:17:05;;;;;;;6.30;5.03;;;;;;;28.73;14.15;100516.31;5009346;28;20142;-72
2022/03/13 10:19:31;;;;;;;6.10;4.90;;;;;;;28.50;13.78;100523.91;5009721;28;20038;-72
2022/03/13 10:22:08;;;;;;;7.18;5.35;;;;;;;28.76;13.66;100530.16;5008825;28;20029;-72
2022/03/13 10:24:44;;;;;;;6.22;5.00;;;;;;;28.78;13.62;100519.84;5009806;28;20037;-72
2022/03/13 10:27:18;;;;;;;7.03;5.72;;;;;;;29.08;13.74;100525.53;5010259;28;20052;-72
2022/03/13 10:29:45;;;;;;;7.88;6.10;;;;;;;29.12;12.96;100523.91;5009922;28;20061;-72
2022/03/13 10:32:11;;;;;;;6.57;5.60;;;;;;;28.94;12.99;100522.56;5005229;28;20034;-72
2022/03/13 10:34:38;;;;;;;7.68;5.57;;;;;;;29.01;13.36;100525.81;5006702;28;20049;-72
2022/03/13 10:37:04;;;;;;;6.53;4.85;;;;;;;29.82;13.24;100522.03;5010131;28;20026;-72
2022/03/13 10:39:31;;;;;;;6.82;5.20;;;;;;;30.28;12.88;100520.97;5006279;28;20038;-72
2022/03/13 10:42:01;;;;;;;7.53;5.43;;;;;;;30.82;12.66;100522.72;5007795;28;20110;-72
2022/03/13 10:44:28;;;;;;;6.47;5.60;;;;;;;30.73;12.00;100518.19;5007791;28;20537;-72
2022/03/13 10:46:59;;;;;;;7.38;5.65;;;;;;;30.49;12.33;100521.66;5006820;28;20681;-72
2022/03/13 10:49:31;;;;;;;7.82;5.20;;;;;;;30.69;12.25;100518.72;5011575;28;20037;-72
2022/03/13 10:51:57;;;;;;;7.47;5.57;;;;;;;30.60;12.04;100528.63;5008603;28;20129;-72
2022/03/13 10:54:28;;;;;;;7.75;5.30;;;;;;;31.22;12.00;100517.16;5007744;28;20037;-72
2022/03/13 10:57:11;;;;;;;6.28;4.85;;;;;;;31.67;11.52;100513.06;5001303;28;20185;-72
2022/03/13 10:59:41;;;;;;;7.53;5.57;;;;;;;31.99;11.64;100510.75;5008225;28;20044;-72
2022/03/13 11:02:26;;;;;;;6.75;5.68;;;;;;;31.42;11.61;100516.16;5013189;28;20398;-72
2022/03/13 11:04:55;;;;;;;6.53;5.60;;;;;;;31.65;11.94;100514.47;5006647;28;20079;-72
2022/03/13 11:07:21;;;;;;;7.13;5.85;;;;;;;32.33;11.21;100514.06;5007738;28;20510;-72
2022/03/13 11:09:47;;;;;;;7.82;6.47;;;;;;;32.45;10.50;100510.06;5004280;28;20037;-72
2022/03/13 11:12:20;;;;;;;6.88;6.00;;;;;;;32.37;10.82;100500.63;5008043;28;20268;-72
2022/03/13 11:14:49;;;;;;;8.63;6.50;;;;;;;32.60;10.59;100500.81;5008458;28;20068;-72
2022/03/13 11:17:16;;;;;;;8.32;6.70;;;;;;;32.56;10.20;100498.69;5008734;28;20034;-72
2022/03/13 11:19:42;;;;;;;8.10;6.22;;;;;;;32.13;10.83;100498.78;5008357;28;20088;-71
2022/03/13 11:22:07;;;;;;;7.97;6.13;;;;;;;32.43;10.44;100493.94;5008000;28;20429;-71
2022/03/13 11:24:36;;;;;;;8.33;6.60;;;;;;;32.83;10.48;100486.16;5006849;28;20043;-72
2022/03/13 11:27:05;;;;;;;9.65;7.07;;;;;;;31.96;10.58;100490.28;5007673;28;20285;-72
2022/03/13 11:29:43;;;;;;;6.90;5.95;;;;;;;31.19;10.99;100479.50;5008607;28;20034;-71